createdAt,value
2019-04-21T00:01:00.463Z,15.11
2019-04-21T00:01:57.913Z,15.04
2019-04-21T00:03:01.880Z,15.05
2019-04-21T00:04:07.394Z,14.99
2019-04-21T00:05:16.491Z,15.00
2019-04-21T00:06:15.636Z,14.99
2019-04-21T00:07:16.020Z,15.00
2019-04-21T00:08:24.693Z,14.99
2019-04-21T00:09:21.148Z,14.94
2019-04-21T00:10:18.500Z,14.93
2019-04-21T00:11:18.454Z,14.89
2019-04-21T00:12:15.474Z,14.93
2019-04-21T00:13:16.628Z,14.82
2019-04-21T00:14:08.959Z,14.81
2019-04-21T00:15:07.666Z,14.86
2019-04-21T00:16:00.243Z,14.82
2019-04-21T00:17:05.332Z,14.77
2019-04-21T00:18:00.616Z,14.78
2019-04-21T00:19:03.341Z,14.73
2019-04-21T00:20:09.109Z,14.81
2019-04-21T00:20:58.598Z,14.78
2019-04-21T00:23:13.045Z,14.68
2019-04-21T00:24:08.816Z,14.86
2019-04-21T00:25:11.803Z,14.78
2019-04-21T00:26:07.578Z,14.68
2019-04-21T00:27:13.413Z,14.66
2019-04-21T00:28:20.106Z,14.70
2019-04-21T00:29:16.794Z,14.67
2019-04-21T00:30:17.031Z,14.63
2019-04-21T00:31:12.775Z,14.62
2019-04-21T00:32:09.990Z,14.56
2019-04-21T00:33:05.197Z,14.55
2019-04-21T00:33:56.407Z,14.52
2019-04-21T00:35:00.833Z,14.55
2019-04-21T00:36:00.665Z,14.40
2019-04-21T00:37:05.839Z,14.44
2019-04-21T00:38:17.238Z,14.43
2019-04-21T00:39:28.797Z,14.51
2019-04-21T00:40:18.739Z,14.48
2019-04-21T00:41:19.269Z,14.38
2019-04-21T00:42:16.847Z,14.41
2019-04-21T00:43:13.682Z,14.38
2019-04-21T00:44:08.688Z,14.33
2019-04-21T00:45:09.111Z,14.37
2019-04-21T00:46:03.482Z,14.30
2019-04-21T00:47:08.452Z,14.28
2019-04-21T00:48:16.958Z,14.31
2019-04-21T00:49:14.144Z,14.25
2019-04-21T00:50:14.343Z,14.28
2019-04-21T00:52:25.130Z,14.12
2019-04-21T00:53:24.611Z,14.18
2019-04-21T00:54:22.738Z,14.11
2019-04-21T00:55:35.499Z,14.04
2019-04-21T00:56:18.176Z,14.03
2019-04-21T00:57:21.967Z,13.97
2019-04-21T00:58:18.358Z,14.03
2019-04-21T00:59:20.107Z,13.91
2019-04-21T01:00:20.632Z,13.95
2019-04-21T01:01:15.225Z,13.91
2019-04-21T01:02:09.910Z,13.94
2019-04-21T01:03:14.252Z,13.86
2019-04-21T01:04:16.924Z,13.83
2019-04-21T01:05:19.841Z,13.82
2019-04-21T01:06:21.036Z,13.79
2019-04-21T01:07:14.199Z,13.83
2019-04-21T01:08:14.322Z,13.65
2019-04-21T01:10:06.428Z,13.73
2019-04-21T01:11:17.881Z,13.76
2019-04-21T01:12:12.556Z,13.73
2019-04-21T01:13:16.847Z,13.75
2019-04-21T01:14:20.063Z,13.68
2019-04-21T01:15:18.345Z,13.58
2019-04-21T01:16:20.841Z,13.60
2019-04-21T01:17:19.181Z,13.64
2019-04-21T01:18:16.481Z,13.71
2019-04-21T01:19:14.369Z,13.62
2019-04-21T01:20:06.519Z,13.70
2019-04-21T01:20:52.840Z,13.60
2019-04-21T01:21:52.798Z,13.60
2019-04-21T01:22:53.720Z,13.54
2019-04-21T01:23:55.731Z,13.58
2019-04-21T01:25:00.055Z,13.50
2019-04-21T01:26:06.789Z,13.54
2019-04-21T01:27:04.812Z,13.57
2019-04-21T01:28:09.900Z,13.50
2019-04-21T01:29:12.662Z,13.52
2019-04-21T01:30:11.716Z,13.42
2019-04-21T01:31:11.101Z,13.43
2019-04-21T01:32:18.767Z,13.46
2019-04-21T01:33:12.378Z,13.45
2019-04-21T01:34:15.087Z,13.50
2019-04-21T01:35:14.977Z,13.43
2019-04-21T01:36:08.328Z,13.42
2019-04-21T01:37:04.625Z,13.45
2019-04-21T01:38:13.873Z,13.33
2019-04-21T01:39:13.170Z,13.33
2019-04-21T01:40:21.129Z,13.36
2019-04-21T01:41:13.241Z,13.36
2019-04-21T01:42:08.851Z,13.39
2019-04-21T01:43:15.064Z,13.37
2019-04-21T01:44:19.639Z,13.36
2019-04-21T01:45:09.340Z,13.40
2019-04-21T01:46:09.247Z,13.33
2019-04-21T01:47:06.006Z,13.36
2019-04-21T01:48:06.459Z,13.31
2019-04-21T01:49:05.601Z,13.33
2019-04-21T01:49:59.312Z,13.26
2019-04-21T01:51:09.678Z,13.24
2019-04-21T01:52:37.265Z,13.28
2019-04-21T01:53:17.513Z,13.28
2019-04-21T01:54:18.534Z,13.23
2019-04-21T01:55:13.815Z,13.16
2019-04-21T01:56:12.077Z,13.20
2019-04-21T01:57:07.294Z,13.20
2019-04-21T01:58:06.013Z,13.19
2019-04-21T01:59:00.867Z,13.16
2019-04-21T02:00:00.927Z,13.23
2019-04-21T02:01:04.722Z,13.17
2019-04-21T02:02:14.205Z,13.17
2019-04-21T02:03:31.470Z,13.12
2019-04-21T02:04:16.655Z,13.16
2019-04-21T02:05:20.698Z,13.05
2019-04-21T02:07:11.597Z,13.03
2019-04-21T02:08:10.877Z,13.01
2019-04-21T02:09:10.057Z,12.99
2019-04-21T02:10:14.475Z,12.90
2019-04-21T02:12:13.444Z,12.90
2019-04-21T02:13:10.289Z,12.83
2019-04-21T02:14:12.959Z,12.80
2019-04-21T02:15:16.649Z,12.76
2019-04-21T02:16:11.300Z,12.73
2019-04-21T02:17:13.284Z,12.73
2019-04-21T02:18:12.030Z,12.65
2019-04-21T02:19:08.479Z,12.63
2019-04-21T02:20:05.356Z,12.65
2019-04-21T02:20:58.011Z,12.62
2019-04-21T02:22:04.566Z,12.62
2019-04-21T02:24:20.892Z,12.54
2019-04-21T02:25:17.558Z,12.50
2019-04-21T02:26:14.094Z,12.50
2019-04-21T02:27:17.383Z,12.39
2019-04-21T02:28:03.536Z,12.39
2019-04-21T02:29:14.304Z,12.40
2019-04-21T02:30:18.343Z,12.30
2019-04-21T02:33:26.045Z,12.18
2019-04-21T02:34:13.117Z,12.17
2019-04-21T02:35:40.724Z,12.15
2019-04-21T02:38:30.589Z,12.10
2019-04-21T02:40:22.297Z,12.00
2019-04-21T02:41:26.494Z,11.91
2019-04-21T02:42:20.333Z,11.85
2019-04-21T02:43:38.388Z,11.81
2019-04-21T02:44:26.449Z,11.83
2019-04-21T02:46:24.016Z,11.60
2019-04-21T02:47:30.836Z,11.63
2019-04-21T02:48:17.301Z,11.62
2019-04-21T02:51:19.363Z,11.53
2019-04-21T02:52:31.937Z,11.44
2019-04-21T02:53:30.532Z,11.45
2019-04-21T02:54:43.613Z,11.38
2019-04-21T02:55:13.454Z,11.31
2019-04-21T02:56:26.412Z,11.23
2019-04-21T02:57:18.575Z,11.25
2019-04-21T02:59:33.651Z,11.19
2019-04-21T03:00:23.776Z,11.12
2019-04-21T03:01:24.371Z,11.07
2019-04-21T03:02:24.683Z,11.07
2019-04-21T03:03:26.027Z,11.05
2019-04-21T03:04:30.303Z,10.95
2019-04-21T03:05:23.698Z,11.04
2019-04-21T03:06:18.736Z,11.04
2019-04-21T03:07:20.003Z,10.90
2019-04-21T03:08:32.183Z,10.90
2019-04-21T03:09:25.953Z,10.94
2019-04-21T03:11:11.915Z,10.87
2019-04-21T03:13:21.676Z,10.86
2019-04-21T03:14:28.323Z,10.79
2019-04-21T03:15:25.057Z,10.83
2019-04-21T03:17:22.306Z,10.83
2019-04-21T03:19:33.053Z,10.86
2019-04-21T03:20:21.164Z,10.84
2019-04-21T03:21:16.868Z,10.79
2019-04-21T03:22:20.881Z,10.82
2019-04-21T03:23:36.576Z,10.80
2019-04-21T03:24:31.209Z,10.77
2019-04-21T03:25:39.093Z,10.79
2019-04-21T03:29:20.283Z,10.75
2019-04-21T03:31:35.363Z,10.80
2019-04-21T03:34:41.831Z,10.72
2019-04-21T03:36:41.073Z,10.75
2019-04-21T03:38:20.802Z,10.64
2019-04-21T03:39:11.403Z,10.71
2019-04-21T03:40:14.937Z,10.65
2019-04-21T03:41:37.896Z,10.72
2019-04-21T03:42:30.608Z,10.61
2019-04-21T03:43:20.700Z,10.67
2019-04-21T03:44:14.420Z,10.64
2019-04-21T03:45:26.388Z,10.64
2019-04-21T03:46:18.319Z,10.59
2019-04-21T03:47:28.815Z,10.64
2019-04-21T03:48:24.027Z,10.62
2019-04-21T03:49:23.069Z,10.62
2019-04-21T03:50:22.324Z,10.64
2019-04-21T03:51:21.563Z,10.53
2019-04-21T03:52:19.537Z,10.57
2019-04-21T03:53:18.467Z,10.46
2019-04-21T03:54:15.611Z,10.43
2019-04-21T03:55:42.905Z,10.57
2019-04-21T03:56:27.083Z,10.51
2019-04-21T03:57:21.650Z,10.53
2019-04-21T03:59:11.534Z,10.46
2019-04-21T04:01:17.963Z,10.48
2019-04-21T04:02:30.673Z,10.48
2019-04-21T04:03:35.249Z,10.45
2019-04-21T04:04:22.595Z,10.41
2019-04-21T04:05:23.877Z,10.39
2019-04-21T04:06:24.571Z,10.46
2019-04-21T04:07:25.054Z,10.36
2019-04-21T04:08:22.820Z,10.31
2019-04-21T04:09:21.471Z,10.34
2019-04-21T04:10:11.966Z,10.41
2019-04-21T04:11:23.428Z,10.31
2019-04-21T04:12:13.474Z,10.38
2019-04-21T04:13:18.568Z,10.38
2019-04-21T04:14:26.940Z,10.31
2019-04-21T04:15:20.502Z,10.38
2019-04-21T04:17:23.954Z,10.38
2019-04-21T04:18:23.453Z,10.30
2019-04-21T04:19:34.443Z,10.31
2019-04-21T04:20:22.422Z,10.33
2019-04-21T04:21:24.249Z,10.38
2019-04-21T04:24:22.031Z,10.38
2019-04-21T04:25:19.186Z,10.36
2019-04-21T04:26:16.921Z,10.33
2019-04-21T04:28:23.065Z,10.41
2019-04-21T04:29:22.517Z,10.36
2019-04-21T04:30:35.713Z,10.42
2019-04-21T04:31:28.139Z,10.34
2019-04-21T04:32:14.594Z,10.42
2019-04-21T04:33:20.341Z,10.41
2019-04-21T04:34:39.130Z,10.36
2019-04-21T04:35:21.673Z,10.46
2019-04-21T04:36:29.614Z,10.45
2019-04-21T04:37:32.194Z,10.43
2019-04-21T04:38:32.390Z,10.48
2019-04-21T04:39:26.353Z,10.53
2019-04-21T04:40:17.380Z,10.55
2019-04-21T04:41:33.646Z,10.48
2019-04-21T04:42:21.720Z,10.48
2019-04-21T04:43:23.362Z,10.45
2019-04-21T04:44:37.262Z,10.48
2019-04-21T04:45:34.543Z,10.51
2019-04-21T04:46:21.460Z,10.49
2019-04-21T04:49:23.664Z,10.51
2019-04-21T04:50:17.731Z,10.57
2019-04-21T04:51:11.671Z,10.53
2019-04-21T04:54:03.840Z,10.61
2019-04-21T04:55:25.776Z,10.64
2019-04-21T04:56:16.362Z,10.58
2019-04-21T04:57:43.302Z,10.67
2019-04-21T04:58:23.393Z,10.57
2019-04-21T05:00:23.432Z,10.61
2019-04-21T05:01:31.986Z,10.64
2019-04-21T05:02:19.815Z,10.65
2019-04-21T05:03:15.571Z,10.68
2019-04-21T05:04:20.887Z,10.67
2019-04-21T05:06:28.508Z,10.71
2019-04-21T05:07:17.486Z,10.71
2019-04-21T05:08:23.946Z,10.77
2019-04-21T05:09:23.194Z,10.68
2019-04-21T05:10:04.296Z,10.71
2019-04-21T05:11:23.546Z,10.71
2019-04-21T05:12:24.771Z,10.72
2019-04-21T05:13:06.475Z,10.82
2019-04-21T05:14:17.133Z,10.76
2019-04-21T05:15:34.179Z,10.79
2019-04-21T05:16:12.788Z,10.79
2019-04-21T05:17:15.711Z,10.76
2019-04-21T05:18:15.336Z,10.82
2019-04-21T05:19:22.635Z,10.82
2019-04-21T05:21:24.746Z,10.82
2019-04-21T05:22:14.232Z,10.90
2019-04-21T05:23:07.734Z,10.90
2019-04-21T05:24:02.638Z,10.94
2019-04-21T05:24:59.559Z,10.90
2019-04-21T05:25:53.372Z,10.90
2019-04-21T05:26:58.202Z,10.89
2019-04-21T05:27:56.457Z,10.86
2019-04-21T05:28:52.655Z,11.00
2019-04-21T05:30:10.354Z,10.95
2019-04-21T05:31:04.797Z,10.94
2019-04-21T05:32:04.692Z,11.02
2019-04-21T05:33:03.939Z,10.98
2019-04-21T05:34:07.474Z,11.05
2019-04-21T05:35:01.893Z,11.05
2019-04-21T05:36:04.109Z,11.05
2019-04-21T05:37:06.079Z,11.12
2019-04-21T05:38:03.130Z,11.01
2019-04-21T05:39:01.284Z,11.04
2019-04-21T05:39:57.908Z,11.19
2019-04-21T05:40:55.179Z,11.07
2019-04-21T05:41:50.650Z,11.19
2019-04-21T05:42:59.831Z,11.16
2019-04-21T05:44:06.606Z,11.23
2019-04-21T05:45:12.743Z,11.23
2019-04-21T05:46:18.480Z,11.25
2019-04-21T05:47:18.828Z,11.27
2019-04-21T05:48:11.631Z,11.25
2019-04-21T05:49:06.822Z,11.38
2019-04-21T05:50:01.215Z,11.37
2019-04-21T05:50:59.163Z,11.33
2019-04-21T05:51:55.724Z,11.43
2019-04-21T05:52:53.484Z,11.38
2019-04-21T05:54:10.585Z,11.40
2019-04-21T05:55:00.965Z,11.45
2019-04-21T05:56:03.579Z,11.45
2019-04-21T05:56:59.882Z,11.44
2019-04-21T05:58:02.510Z,11.52
2019-04-21T05:59:02.351Z,11.53
2019-04-21T06:00:04.338Z,11.48
2019-04-21T06:01:15.404Z,11.56
2019-04-21T06:02:15.219Z,11.53
2019-04-21T06:03:04.242Z,11.59
2019-04-21T06:04:07.625Z,11.67
2019-04-21T06:05:14.252Z,11.70
2019-04-21T06:06:09.991Z,11.71
2019-04-21T06:08:02.970Z,11.81
2019-04-21T06:09:02.857Z,11.86
2019-04-21T06:10:00.088Z,11.91
2019-04-21T06:11:02.426Z,11.86
2019-04-21T06:12:03.795Z,11.95
2019-04-21T06:13:09.484Z,11.99
2019-04-21T06:14:04.170Z,11.99
2019-04-21T06:15:03.817Z,11.97
2019-04-21T06:16:05.855Z,12.00
2019-04-21T06:17:02.911Z,12.07
2019-04-21T06:18:06.403Z,12.10
2019-04-21T06:19:05.259Z,12.15
2019-04-21T06:19:59.931Z,12.15
2019-04-21T06:21:01.290Z,12.18
2019-04-21T06:21:57.434Z,12.28
2019-04-21T06:23:03.001Z,12.18
2019-04-21T06:23:57.577Z,12.26
2019-04-21T06:25:31.581Z,12.35
2019-04-21T06:27:13.428Z,12.40
2019-04-21T06:28:08.958Z,12.43
2019-04-21T06:28:59.579Z,12.40
2019-04-21T06:29:59.929Z,12.47
2019-04-21T06:31:18.153Z,12.50
2019-04-21T06:32:21.898Z,12.57
2019-04-21T06:33:24.041Z,12.57
2019-04-21T06:34:00.216Z,12.63
2019-04-21T06:35:23.840Z,12.68
2019-04-21T06:36:31.762Z,12.70
2019-04-21T06:37:18.782Z,12.72
2019-04-21T06:38:03.674Z,12.83
2019-04-21T06:41:06.183Z,12.88
2019-04-21T06:41:58.501Z,12.90
2019-04-21T06:43:11.065Z,12.93
2019-04-21T06:44:01.355Z,13.02
2019-04-21T06:45:59.029Z,13.01
2019-04-21T06:46:59.026Z,13.20
2019-04-21T06:48:04.720Z,13.13
2019-04-21T06:49:18.747Z,13.21
2019-04-21T06:50:20.650Z,13.21
2019-04-21T06:51:01.578Z,13.26
2019-04-21T06:52:10.601Z,13.31
2019-04-21T06:53:23.818Z,13.30
2019-04-21T06:54:03.602Z,13.31
2019-04-21T06:55:03.326Z,13.43
2019-04-21T06:56:56.603Z,13.52
2019-04-21T06:58:00.701Z,13.61
2019-04-21T06:59:01.261Z,13.54
2019-04-21T06:59:57.172Z,13.68
2019-04-21T07:00:56.268Z,13.71
2019-04-21T07:02:08.186Z,13.71
2019-04-21T07:03:11.012Z,13.76
2019-04-21T07:04:07.643Z,13.89
2019-04-21T07:05:03.695Z,13.86
2019-04-21T07:06:03.582Z,13.93
2019-04-21T07:06:59.372Z,14.00
2019-04-21T07:08:14.930Z,14.05
2019-04-21T07:09:10.330Z,14.03
2019-04-21T07:10:09.101Z,14.15
2019-04-21T07:10:59.165Z,14.23
2019-04-21T07:11:56.678Z,14.33
2019-04-21T07:13:00.380Z,14.25
2019-04-21T07:14:13.571Z,14.38
2019-04-21T07:14:58.865Z,14.38
2019-04-21T07:16:04.096Z,14.45
2019-04-21T07:17:06.558Z,14.43
2019-04-21T07:18:02.578Z,14.49
2019-04-21T07:19:05.914Z,14.63
2019-04-21T07:20:02.397Z,14.63
2019-04-21T07:20:59.773Z,14.79
2019-04-21T07:21:55.602Z,14.68
2019-04-21T07:23:02.801Z,14.78
2019-04-21T07:23:59.426Z,14.82
2019-04-21T07:25:07.363Z,14.92
2019-04-21T07:26:00.714Z,14.99
2019-04-21T07:27:02.363Z,15.07
2019-04-21T07:27:59.300Z,15.05
2019-04-21T07:29:04.546Z,15.12
2019-04-21T07:29:59.555Z,15.17
2019-04-21T07:31:03.657Z,15.12
2019-04-21T07:32:04.582Z,15.26
2019-04-21T07:33:10.789Z,15.41
2019-04-21T07:33:58.297Z,15.37
2019-04-21T07:35:00.594Z,15.45
2019-04-21T07:35:55.727Z,15.51
2019-04-21T07:38:00.922Z,15.62
2019-04-21T07:38:57.381Z,15.66
2019-04-21T07:39:55.980Z,15.76
2019-04-21T07:40:45.793Z,15.81
2019-04-21T07:41:54.056Z,15.84
2019-04-21T07:42:51.412Z,15.90
2019-04-21T07:43:51.030Z,15.94
2019-04-21T07:44:49.212Z,16.00
2019-04-21T07:45:50.143Z,16.12
2019-04-21T07:46:47.197Z,16.13
2019-04-21T07:47:55.204Z,16.31
2019-04-21T07:48:55.426Z,16.36
2019-04-21T07:49:57.428Z,16.37
2019-04-21T07:51:01.656Z,16.44
2019-04-21T07:51:59.155Z,16.51
2019-04-21T07:53:05.217Z,16.62
2019-04-21T07:54:01.878Z,16.72
2019-04-21T07:55:07.984Z,16.80
2019-04-21T07:55:37.281Z,16.82
2019-04-21T07:56:39.898Z,17.02
2019-04-21T07:57:54.852Z,16.98
2019-04-21T07:59:00.169Z,16.92
2019-04-21T08:00:06.489Z,17.07
2019-04-21T08:00:56.469Z,17.12
2019-04-21T08:01:55.124Z,17.28
2019-04-21T08:02:54.433Z,17.34
2019-04-21T08:03:57.000Z,17.31
2019-04-21T08:05:00.502Z,17.41
2019-04-21T08:05:58.471Z,17.53
2019-04-21T08:06:51.672Z,17.53
2019-04-21T08:07:56.019Z,17.57
2019-04-21T08:08:53.520Z,17.69
2019-04-21T08:09:51.703Z,17.75
2019-04-21T08:10:53.625Z,17.76
2019-04-21T08:11:50.518Z,17.84
2019-04-21T08:13:53.567Z,18.00
2019-04-21T08:14:55.876Z,18.11
2019-04-21T08:15:52.851Z,18.16
2019-04-21T08:16:57.275Z,18.31
2019-04-21T08:17:57.032Z,18.31
2019-04-21T08:18:53.588Z,18.31
2019-04-21T08:19:49.871Z,18.42
2019-04-21T08:20:54.926Z,18.55
2019-04-21T08:22:00.078Z,18.61
2019-04-21T08:23:47.946Z,18.71
2019-04-21T08:24:57.721Z,18.74
2019-04-21T08:26:03.272Z,18.85
2019-04-21T08:27:01.552Z,18.82
2019-04-21T08:27:54.017Z,18.94
2019-04-21T08:28:53.781Z,19.04
2019-04-21T08:29:51.983Z,19.08
2019-04-21T08:30:55.496Z,19.11
2019-04-21T08:32:07.839Z,19.26
2019-04-21T08:33:58.310Z,19.34
2019-04-21T08:35:14.725Z,19.39
2019-04-21T08:36:12.982Z,19.44
2019-04-21T08:36:51.510Z,19.53
2019-04-21T08:37:48.387Z,19.57
2019-04-21T08:38:54.447Z,19.59
2019-04-21T08:40:12.262Z,19.75
2019-04-21T08:40:56.299Z,19.79
2019-04-21T08:41:51.017Z,19.89
2019-04-21T08:42:52.033Z,19.94
2019-04-21T08:43:54.678Z,19.96
2019-04-21T08:44:52.472Z,20.12
2019-04-21T08:45:57.682Z,20.24
2019-04-21T08:46:52.811Z,20.19
2019-04-21T08:47:53.540Z,20.34
2019-04-21T08:48:55.299Z,20.30
2019-04-21T08:49:53.592Z,20.37
2019-04-21T08:51:00.624Z,20.44
2019-04-21T08:51:55.889Z,20.53
2019-04-21T08:52:56.427Z,20.50
2019-04-21T08:53:55.079Z,20.59
2019-04-21T08:54:57.131Z,20.70
2019-04-21T08:55:58.694Z,20.78
2019-04-21T08:56:54.683Z,20.77
2019-04-21T08:57:58.333Z,20.86
2019-04-21T08:58:59.049Z,20.86
2019-04-21T08:59:54.773Z,20.96
2019-04-21T09:00:56.249Z,21.05
2019-04-21T09:01:48.866Z,21.17
2019-04-21T09:02:56.129Z,21.29
2019-04-21T09:03:49.520Z,21.30
2019-04-21T09:04:56.309Z,21.33
2019-04-21T09:05:49.447Z,21.38
2019-04-21T09:06:58.744Z,21.48
2019-04-21T09:07:50.941Z,21.56
2019-04-21T09:08:55.065Z,21.54
2019-04-21T09:09:52.946Z,21.65
2019-04-21T09:10:48.526Z,21.65
2019-04-21T09:11:47.515Z,21.78
2019-04-21T09:12:48.015Z,21.81
2019-04-21T09:13:50.689Z,21.91
2019-04-21T09:14:50.586Z,21.97
2019-04-21T09:15:49.559Z,22.12
2019-04-21T09:16:46.012Z,22.07
2019-04-21T09:17:42.439Z,22.18
2019-04-21T09:18:42.847Z,22.19
2019-04-21T09:20:06.305Z,22.25
2019-04-21T09:20:53.785Z,22.31
2019-04-21T09:21:53.265Z,22.40
2019-04-21T09:22:49.078Z,22.38
2019-04-21T09:23:52.274Z,22.53
2019-04-21T09:24:52.574Z,22.49
2019-04-21T09:25:53.047Z,22.53
2019-04-21T09:26:46.593Z,22.63
2019-04-21T09:27:47.068Z,22.73
2019-04-21T09:28:39.506Z,22.74
2019-04-21T09:29:39.293Z,22.86
2019-04-21T09:30:40.507Z,22.89
2019-04-21T09:31:37.437Z,22.92
2019-04-21T09:32:33.002Z,23.10
2019-04-21T09:33:36.715Z,23.14
2019-04-21T09:34:36.526Z,23.14
2019-04-21T09:35:31.430Z,23.26
2019-04-21T09:36:37.734Z,23.16
2019-04-21T09:37:40.903Z,23.33
2019-04-21T09:38:37.087Z,23.39
2019-04-21T09:39:31.937Z,23.49
2019-04-21T09:40:36.202Z,23.54
2019-04-21T09:41:30.955Z,23.64
2019-04-21T09:42:35.998Z,23.76
2019-04-21T09:43:37.711Z,23.91
2019-04-21T09:44:35.055Z,23.85
2019-04-21T09:45:30.747Z,23.99
2019-04-21T09:46:29.891Z,24.09
2019-04-21T09:47:38.555Z,24.18
2019-04-21T09:48:42.658Z,24.21
2019-04-21T09:49:32.789Z,24.18
2019-04-21T09:50:29.563Z,24.31
2019-04-21T09:51:30.461Z,24.29
2019-04-21T09:52:38.845Z,24.38
2019-04-21T09:53:34.471Z,24.40
2019-04-21T09:54:33.640Z,24.44
2019-04-21T09:55:39.065Z,24.48
2019-04-21T09:56:39.540Z,24.56
2019-04-21T09:57:38.266Z,24.68
2019-04-21T09:58:34.747Z,24.66
2019-04-21T09:59:34.951Z,24.81
2019-04-21T10:00:38.025Z,24.85
2019-04-21T10:01:43.493Z,24.94
2019-04-21T10:02:40.248Z,25.01
2019-04-21T10:03:36.165Z,25.06
2019-04-21T10:04:29.032Z,25.09
2019-04-21T10:05:29.769Z,25.14
2019-04-21T10:06:28.682Z,25.14
2019-04-21T10:07:34.935Z,25.26
2019-04-21T10:08:29.555Z,25.36
2019-04-21T10:09:29.001Z,25.39
2019-04-21T10:10:29.632Z,25.51
2019-04-21T10:11:28.811Z,25.49
2019-04-21T10:12:28.781Z,25.61
2019-04-21T10:13:29.536Z,25.76
2019-04-21T10:14:28.679Z,25.78
2019-04-21T10:15:29.568Z,25.81
2019-04-21T10:16:28.274Z,25.93
2019-04-21T10:17:29.317Z,26.03
2019-04-21T10:18:29.334Z,26.03
2019-04-21T10:19:28.147Z,26.13
2019-04-21T10:20:28.561Z,26.15
2019-04-21T10:21:29.413Z,26.23
2019-04-21T10:22:28.829Z,26.16
2019-04-21T10:23:27.985Z,26.26
2019-04-21T10:24:28.490Z,26.24
2019-04-21T10:25:28.350Z,26.31
2019-04-21T10:26:28.616Z,26.39
2019-04-21T10:27:27.821Z,26.42
2019-04-21T10:28:28.809Z,26.52
2019-04-21T10:29:30.038Z,26.60
2019-04-21T10:30:28.715Z,26.74
2019-04-21T10:31:28.907Z,26.73
2019-04-21T10:32:28.201Z,26.76
2019-04-21T10:33:28.290Z,26.78
2019-04-21T10:34:27.539Z,26.88
2019-04-21T10:35:28.550Z,26.93
2019-04-21T10:36:27.458Z,26.97
2019-04-21T10:37:39.139Z,27.04
2019-04-21T10:38:35.448Z,26.97
2019-04-21T10:39:27.451Z,27.07
2019-04-21T10:40:29.196Z,27.13
2019-04-21T10:41:27.597Z,27.18
2019-04-21T10:42:27.217Z,27.20
2019-04-21T10:44:52.694Z,27.22
2019-04-21T10:45:52.854Z,27.28
2019-04-21T10:46:54.026Z,27.29
2019-04-21T10:47:52.777Z,27.33
2019-04-21T10:48:52.601Z,27.41
2019-04-21T10:49:52.860Z,27.47
2019-04-21T10:50:52.758Z,27.60
2019-04-21T10:51:52.919Z,27.60
2019-04-21T10:52:51.643Z,27.66
2019-04-21T10:53:52.842Z,27.78
2019-04-21T10:55:11.144Z,27.81
2019-04-21T10:56:04.409Z,27.94
2019-04-21T10:56:52.555Z,27.83
2019-04-21T10:57:52.658Z,27.98
2019-04-21T10:58:52.206Z,28.03
2019-04-21T10:59:54.095Z,28.18
2019-04-21T11:00:52.721Z,28.22
2019-04-21T11:01:52.675Z,28.20
2019-04-21T11:02:51.247Z,28.33
2019-04-21T11:03:51.210Z,28.31
2019-04-21T11:04:51.186Z,28.37
2019-04-21T11:05:52.580Z,28.41
2019-04-21T11:06:52.530Z,28.41
2019-04-21T11:08:02.474Z,28.53
2019-04-21T11:08:55.190Z,28.52
2019-04-21T11:09:51.872Z,28.74
2019-04-21T11:10:51.956Z,28.78
2019-04-21T11:11:53.164Z,28.87
2019-04-21T11:12:50.907Z,28.97
2019-04-21T11:13:50.815Z,29.03
2019-04-21T11:14:51.480Z,29.24
2019-04-21T11:15:50.923Z,29.39
2019-04-21T11:16:52.600Z,29.52
2019-04-21T11:17:50.753Z,29.68
2019-04-21T11:18:51.617Z,29.95
2019-04-21T11:19:50.678Z,30.10
2019-04-21T11:20:51.106Z,30.23
2019-04-21T11:21:50.520Z,30.46
2019-04-21T11:22:51.398Z,30.70
2019-04-21T11:23:50.444Z,31.00
2019-04-21T11:24:51.133Z,31.39
2019-04-21T11:25:51.641Z,31.70
2019-04-21T11:26:51.862Z,31.98
2019-04-21T11:27:51.164Z,32.09
2019-04-21T11:28:50.595Z,32.26
2019-04-21T11:29:51.591Z,32.23
2019-04-21T11:30:50.959Z,32.46
2019-04-21T11:31:51.346Z,32.56
2019-04-21T11:32:51.141Z,32.82
2019-04-21T11:33:51.174Z,32.94
2019-04-21T11:34:51.413Z,33.16
2019-04-21T11:35:51.081Z,33.48
2019-04-21T11:36:50.268Z,33.85
2019-04-21T11:37:50.315Z,34.35
2019-04-21T11:39:07.435Z,34.79
2019-04-21T11:39:57.366Z,35.27
2019-04-21T11:40:49.830Z,35.68
2019-04-21T11:41:49.907Z,36.29
2019-04-21T11:42:49.721Z,36.76
2019-04-21T11:43:50.852Z,37.07
2019-04-21T11:44:49.646Z,37.48
2019-04-21T11:45:50.531Z,37.91
2019-04-21T11:46:49.575Z,38.28
2019-04-21T11:47:50.181Z,38.44
2019-04-21T11:48:50.377Z,38.58
2019-04-21T11:49:49.469Z,38.63
2019-04-21T11:50:50.863Z,38.82
2019-04-21T11:51:49.400Z,39.10
2019-04-21T11:52:49.390Z,39.37
2019-04-21T11:53:50.689Z,39.61
2019-04-21T11:54:49.292Z,39.86
2019-04-21T11:55:51.776Z,40.02
2019-04-21T11:56:50.585Z,40.23
2019-04-21T11:57:50.175Z,40.31
2019-04-21T11:58:49.976Z,40.55
2019-04-21T11:59:49.118Z,40.66
2019-04-21T12:00:50.905Z,40.85
2019-04-21T12:01:49.797Z,40.86
2019-04-21T12:02:49.014Z,40.95
2019-04-21T12:03:49.658Z,41.26
2019-04-21T12:04:49.538Z,41.26
2019-04-21T12:05:48.915Z,41.48
2019-04-21T12:06:50.778Z,41.49
2019-04-21T12:07:49.368Z,41.68
2019-04-21T12:08:51.470Z,41.70
2019-04-21T12:09:53.443Z,41.93
2019-04-21T12:10:49.254Z,41.99
2019-04-21T12:11:49.385Z,42.00
2019-04-21T12:13:49.693Z,41.87
2019-04-21T12:14:50.196Z,41.91
2019-04-21T12:15:49.199Z,41.91
2019-04-21T12:16:48.785Z,41.91
2019-04-21T12:17:50.025Z,41.93
2019-04-21T12:18:49.219Z,41.96
2019-04-21T12:19:48.597Z,42.14
2019-04-21T12:20:49.285Z,42.32
2019-04-21T12:21:58.777Z,42.52
2019-04-21T12:22:49.431Z,42.37
2019-04-21T12:23:48.394Z,42.14
2019-04-21T12:24:49.071Z,41.93
2019-04-21T12:25:49.447Z,41.95
2019-04-21T12:26:49.657Z,41.90
2019-04-21T12:27:48.200Z,41.98
2019-04-21T12:28:48.162Z,41.83
2019-04-21T12:29:49.350Z,42.03
2019-04-21T12:30:49.283Z,41.93
2019-04-21T12:31:48.079Z,41.88
2019-04-21T12:32:48.565Z,42.14
2019-04-21T12:33:48.069Z,42.22
2019-04-21T12:34:50.499Z,42.03
2019-04-21T12:35:48.203Z,41.87
2019-04-21T12:36:48.717Z,41.98
2019-04-21T12:37:49.005Z,42.21
2019-04-21T12:38:53.931Z,42.39
2019-04-21T12:39:48.589Z,42.68
2019-04-21T12:40:48.549Z,42.87
2019-04-21T12:41:48.861Z,43.02
2019-04-21T12:42:48.385Z,43.25
2019-04-21T12:43:48.658Z,43.36
2019-04-21T12:44:47.661Z,43.50
2019-04-21T12:45:47.614Z,43.32
2019-04-21T12:46:47.764Z,43.14
2019-04-21T12:47:50.251Z,42.86
2019-04-21T12:48:47.793Z,42.62
2019-04-21T12:49:47.801Z,42.75
2019-04-21T12:50:47.938Z,42.86
2019-04-21T12:51:48.029Z,42.94
2019-04-21T12:52:47.516Z,43.07
2019-04-21T12:53:47.780Z,43.27
2019-04-21T12:55:48.067Z,43.36
2019-04-21T12:56:47.664Z,43.35
2019-04-21T12:57:47.670Z,43.31
2019-04-21T12:58:47.274Z,43.28
2019-04-21T12:59:47.136Z,43.09
2019-04-21T13:00:47.281Z,43.11
2019-04-21T13:01:47.086Z,42.94
2019-04-21T13:02:47.756Z,42.93
2019-04-21T13:03:47.964Z,42.74
2019-04-21T13:04:49.297Z,42.65
2019-04-21T13:05:47.558Z,42.73
2019-04-21T13:06:47.601Z,42.86
2019-04-21T13:07:46.897Z,42.93
2019-04-21T13:08:55.706Z,43.14
2019-04-21T13:09:48.353Z,43.25
2019-04-21T13:10:46.818Z,43.43
2019-04-21T13:11:46.937Z,43.38
2019-04-21T13:12:47.909Z,43.22
2019-04-21T13:13:48.064Z,43.08
2019-04-21T13:14:47.488Z,42.87
2019-04-21T13:15:47.313Z,42.68
2019-04-21T13:16:47.816Z,42.52
2019-04-21T13:17:47.419Z,42.33
2019-04-21T13:18:47.126Z,41.86
2019-04-21T13:19:47.296Z,41.96
2019-04-21T13:20:46.472Z,42.10
2019-04-21T13:21:47.803Z,42.06
2019-04-21T13:22:46.417Z,42.20
2019-04-21T13:23:47.232Z,42.12
2019-04-21T13:24:47.533Z,42.00
2019-04-21T13:25:46.300Z,42.03
2019-04-21T13:26:52.733Z,41.87
2019-04-21T13:27:47.245Z,41.70
2019-04-21T13:30:11.022Z,41.68
2019-04-21T13:31:11.999Z,41.63
2019-04-21T13:32:12.439Z,41.65
2019-04-21T13:33:11.282Z,41.67
2019-04-21T13:34:10.882Z,41.93
2019-04-21T13:35:10.878Z,41.84
2019-04-21T13:36:11.782Z,41.98
2019-04-21T13:37:11.925Z,42.14
2019-04-21T13:38:22.409Z,42.15
2019-04-21T13:39:37.978Z,42.21
2019-04-21T13:43:12.010Z,42.32
2019-04-21T13:44:10.974Z,42.37
2019-04-21T13:45:12.048Z,42.33
2019-04-21T13:46:11.959Z,42.49
2019-04-21T13:47:10.579Z,42.66
2019-04-21T13:48:10.672Z,42.78
2019-04-21T13:49:11.566Z,43.09
2019-04-21T13:50:11.168Z,42.86